Copeland, Alabama
Current Conditions -  °F | °C
As of 1:58 AM on Tuesday 27 Jan 2015 (Local Time) from KMEI Reporting Station
Clear Clear  
Wind Chill: 28°   Ceiling: Unl
Heat Index: 33°   Visibility: 10mi
Dew Point: 31°   Wind: 6mph
Humidity: 92%   Direction: 190°S
Pressure: 29.99"   Gusts: NA
Location:  31.6272°N, 88.354°W
Report Text: KMEI 270758Z AUTO 19005KT 10SM CLR 01/M01 A2999 RMK AO2 SLP157 T00061006
Loading
Personal Weather Stations






























Interactive Weather Map New forecast layout! Learn more

10-Day Weather Forecast

Advertisements
Track Severe Weather on mobile